createdAt,value
2023-01-10T00:04:36.408Z,98271.56
2023-01-10T00:09:58.110Z,98281.78
2023-01-10T00:15:20.066Z,98291.94
2023-01-10T00:20:41.882Z,98294.53
2023-01-10T00:26:03.617Z,98306.00
2023-01-10T00:31:25.513Z,98308.38
2023-01-10T00:36:48.000Z,98316.03
2023-01-10T00:42:30.207Z,98327.66
2023-01-10T00:47:52.422Z,98335.75
2023-01-10T00:53:14.219Z,98343.66
2023-01-10T00:58:36.006Z,98351.06
2023-01-10T01:03:59.371Z,98353.84
2023-01-10T01:09:21.096Z,98376.53
2023-01-10T01:14:42.795Z,98387.78
2023-01-10T01:20:04.949Z,98398.81
2023-01-10T01:25:26.891Z,98414.28
2023-01-10T01:30:49.265Z,98416.47
2023-01-10T01:36:11.991Z,98419.41
2023-01-10T01:41:52.453Z,98424.63
2023-01-10T01:47:26.916Z,98454.09
2023-01-10T01:52:53.183Z,98467.25
2023-01-10T01:58:20.277Z,98492.34
2023-01-10T02:03:45.201Z,98493.66
2023-01-10T02:09:31.626Z,98498.66
2023-01-10T02:14:54.018Z,98515.22
2023-01-10T02:20:17.571Z,98535.53
2023-01-10T02:25:57.813Z,98555.38
2023-01-10T02:31:35.997Z,98567.16
2023-01-10T02:37:07.518Z,98577.44
2023-01-10T02:43:14.019Z,98582.19
2023-01-10T02:48:35.752Z,98591.63
2023-01-10T02:54:08.224Z,98587.34
2023-01-10T02:59:53.428Z,98590.75
2023-01-10T03:05:40.252Z,98614.47
2023-01-10T03:11:10.215Z,98620.94
2023-01-10T03:16:35.135Z,98638.75
2023-01-10T03:22:01.249Z,98640.38
2023-01-10T03:27:38.755Z,98654.53
2023-01-10T03:33:00.788Z,98680.19
2023-01-10T03:38:44.930Z,98699.00
2023-01-10T03:44:37.034Z,98705.88
2023-01-10T03:50:15.455Z,98705.25
2023-01-10T03:55:37.528Z,98708.50
2023-01-10T04:00:59.399Z,98713.31
2023-01-10T04:06:21.215Z,98717.31
2023-01-10T04:11:42.883Z,98733.31
2023-01-10T04:17:04.676Z,98751.84
2023-01-10T04:22:26.613Z,98756.81
2023-01-10T04:27:52.250Z,98775.97
2023-01-10T04:33:13.922Z,98773.38
2023-01-10T04:38:35.633Z,98788.78
2023-01-10T04:43:57.298Z,98818.41
2023-01-10T04:49:18.998Z,98819.81
2023-01-10T04:54:40.663Z,98833.06
2023-01-10T05:00:02.326Z,98840.66
2023-01-10T05:05:24.679Z,98849.22
2023-01-10T05:10:46.361Z,98859.03
2023-01-10T05:16:08.570Z,98873.78
2023-01-10T05:21:30.308Z,98876.81
2023-01-10T05:26:51.998Z,98880.53
2023-01-10T05:32:13.725Z,98889.41
2023-01-10T05:37:36.848Z,98896.13
2023-01-10T05:42:59.488Z,98902.56
2023-01-10T05:48:21.244Z,98918.28
2023-01-10T05:53:43.347Z,98922.56
2023-01-10T05:59:07.984Z,98919.72
2023-01-10T06:04:33.427Z,98930.63
2023-01-10T06:09:55.099Z,98950.06
2023-01-10T06:15:17.320Z,98956.44
2023-01-10T06:20:42.771Z,98959.28
2023-01-10T06:26:04.599Z,98969.63
2023-01-10T06:31:26.937Z,98973.75
2023-01-10T06:36:48.713Z,98982.00
2023-01-10T06:42:10.382Z,98993.16
2023-01-10T06:47:32.099Z,99008.94
2023-01-10T06:53:02.887Z,99019.00
2023-01-10T06:58:24.656Z,99022.81
2023-01-10T07:03:46.906Z,99035.38
2023-01-10T07:09:09.225Z,99044.19
2023-01-10T07:14:30.953Z,99054.41
2023-01-10T07:19:52.666Z,99066.41
2023-01-10T07:25:14.333Z,99084.31
2023-01-10T07:30:37.511Z,99088.72
2023-01-10T07:36:00.869Z,99075.72
2023-01-10T07:41:22.602Z,99073.28
2023-01-10T07:46:44.391Z,99098.84
2023-01-10T07:52:08.853Z,99121.25
2023-01-10T07:57:30.553Z,99129.38
2023-01-10T08:02:56.502Z,99131.41
2023-01-10T08:08:18.609Z,99138.94
2023-01-10T08:13:40.331Z,99142.50
2023-01-10T08:19:02.013Z,99145.72
2023-01-10T08:24:23.699Z,99153.69
2023-01-10T08:29:45.531Z,99159.50
2023-01-10T08:35:07.569Z,99171.72
2023-01-10T08:40:29.319Z,99184.50
2023-01-10T08:45:51.004Z,99186.22
2023-01-10T08:51:12.814Z,99192.94
2023-01-10T08:56:36.152Z,99194.81
2023-01-10T09:01:59.682Z,99203.38
2023-01-10T09:07:21.385Z,99211.28
2023-01-10T09:12:54.884Z,99213.78
2023-01-10T09:18:16.556Z,99229.63
2023-01-10T09:23:39.905Z,99223.66
2023-01-10T09:29:01.659Z,99236.75
2023-01-10T09:34:24.895Z,99245.91
2023-01-10T09:39:46.716Z,99248.31
2023-01-10T09:45:21.396Z,99253.03
2023-01-10T09:50:46.129Z,99265.72
2023-01-10T09:56:08.621Z,99279.13
2023-01-10T10:01:37.174Z,99286.84
2023-01-10T10:06:59.243Z,99277.13
2023-01-10T10:12:35.879Z,99273.47
2023-01-10T10:18:31.340Z,99264.63
2023-01-10T10:24:09.088Z,99253.34
2023-01-10T10:29:42.830Z,99256.22
2023-01-10T10:35:15.207Z,99266.38
2023-01-10T10:40:40.832Z,99262.59
2023-01-10T10:46:05.545Z,99258.34
2023-01-10T10:51:39.582Z,99251.28
2023-01-10T10:57:01.341Z,99237.38
2023-01-10T11:02:29.589Z,99247.56
2023-01-10T11:07:54.556Z,99263.88
2023-01-10T11:13:31.139Z,99262.13
2023-01-10T11:19:23.577Z,99266.59
2023-01-10T11:24:54.096Z,99259.50
2023-01-10T11:30:22.909Z,99267.31
2023-01-10T11:35:58.629Z,99264.56
2023-01-10T11:41:20.236Z,99263.56
2023-01-10T11:46:46.937Z,99251.81
2023-01-10T11:52:26.345Z,99248.28
2023-01-10T11:57:57.311Z,99236.19
2023-01-10T12:03:37.380Z,99238.63
2023-01-10T12:08:59.245Z,99242.63
2023-01-10T12:14:20.982Z,99251.34
2023-01-10T12:19:42.780Z,99236.19
2023-01-10T12:25:16.976Z,99225.47
2023-01-10T12:30:44.374Z,99216.16
2023-01-10T12:36:44.661Z,99211.28
2023-01-10T12:42:27.670Z,99198.91
2023-01-10T12:47:58.994Z,99196.88
2023-01-10T12:53:48.209Z,99191.09
2023-01-10T12:59:48.520Z,99198.13
2023-01-10T13:05:20.440Z,99201.66
2023-01-10T13:10:45.914Z,99201.22
2023-01-10T13:16:42.776Z,99192.19
2023-01-10T13:22:23.624Z,99198.16
2023-01-10T13:27:45.436Z,99196.63
2023-01-10T13:33:20.543Z,99197.47
2023-01-10T13:38:51.389Z,99197.53
2023-01-10T13:44:15.207Z,99194.00
2023-01-10T13:49:41.615Z,99193.22
2023-01-10T13:55:20.631Z,99201.22
2023-01-10T14:01:08.575Z,99204.91
2023-01-10T14:06:30.671Z,99203.94
2023-01-10T14:11:57.711Z,99199.13
2023-01-10T14:17:28.016Z,99211.19
2023-01-10T14:23:17.157Z,99212.19
2023-01-10T14:28:41.244Z,99205.00
2023-01-10T14:34:04.863Z,99203.41
2023-01-10T14:39:28.301Z,99205.72
2023-01-10T14:45:17.451Z,99201.75
2023-01-10T14:50:39.177Z,99191.06
2023-01-10T14:56:01.078Z,99193.84
2023-01-10T15:01:29.652Z,99186.19
2023-01-10T15:06:52.982Z,99174.75
2023-01-10T15:12:16.827Z,99156.97
2023-01-10T15:17:39.574Z,99157.69
2023-01-10T15:23:01.950Z,99144.28
2023-01-10T15:28:23.694Z,99141.72
2023-01-10T15:33:56.222Z,99134.09
2023-01-10T15:39:30.705Z,99135.22
2023-01-10T15:44:52.822Z,99122.97
2023-01-10T15:50:21.449Z,99119.97
2023-01-10T15:55:53.409Z,99114.75
2023-01-10T16:01:16.447Z,99119.50
2023-01-10T16:06:38.212Z,99119.63
2023-01-10T16:12:18.180Z,99119.50
2023-01-10T16:17:39.878Z,99113.66
2023-01-10T16:23:03.004Z,99113.00
2023-01-10T16:28:27.351Z,99109.00
2023-01-10T16:33:49.338Z,99098.00
2023-01-10T16:39:18.291Z,99101.44
2023-01-10T16:44:41.568Z,99090.41
2023-01-10T16:50:03.355Z,99089.19
2023-01-10T16:55:33.454Z,99087.41
2023-01-10T17:00:58.477Z,99095.91
2023-01-10T17:06:20.297Z,99087.31
2023-01-10T17:11:42.568Z,99082.06
2023-01-10T17:17:04.762Z,99075.06
2023-01-10T17:22:26.477Z,99077.25
2023-01-10T17:27:48.232Z,99068.72
2023-01-10T17:33:13.039Z,99066.06
2023-01-10T17:38:34.764Z,99050.34
2023-01-10T17:43:56.431Z,99048.66
2023-01-10T17:49:18.104Z,99052.03
2023-01-10T17:54:39.792Z,99045.66
2023-01-10T18:00:01.685Z,99046.78
2023-01-10T18:05:23.477Z,99043.97
2023-01-10T18:10:45.789Z,99036.84
2023-01-10T18:16:07.544Z,99045.19
2023-01-10T18:21:29.344Z,99043.59
2023-01-10T18:26:51.062Z,99026.19
2023-01-10T18:32:12.733Z,99020.31
2023-01-10T18:37:34.447Z,99023.72
2023-01-10T18:42:58.284Z,99014.41
2023-01-10T18:48:21.185Z,98999.47
2023-01-10T18:53:43.219Z,98989.91
2023-01-10T18:59:05.104Z,98996.91
2023-01-10T19:04:26.922Z,98997.75
2023-01-10T19:09:48.621Z,98993.44
2023-01-10T19:15:10.897Z,98970.06
2023-01-10T19:20:32.677Z,98969.22
2023-01-10T19:25:58.357Z,98962.31
2023-01-10T19:31:26.113Z,98958.25
2023-01-10T19:36:47.868Z,98954.47
2023-01-10T19:42:09.583Z,98956.44
2023-01-10T19:47:31.284Z,98964.38
2023-01-10T19:52:52.975Z,98966.28
2023-01-10T19:58:14.697Z,98952.56
2023-01-10T20:03:37.823Z,98959.19
2023-01-10T20:08:59.499Z,98951.47
2023-01-10T20:14:22.070Z,98943.75
2023-01-10T20:19:48.657Z,98937.47
2023-01-10T20:25:10.969Z,98954.72
2023-01-10T20:30:32.721Z,98944.13
2023-01-10T20:35:56.377Z,98932.09
2023-01-10T20:41:21.024Z,98933.78
2023-01-10T20:46:42.784Z,98926.81
2023-01-10T20:52:04.646Z,98925.66
2023-01-10T20:57:26.365Z,98916.13
2023-01-10T21:02:48.135Z,98908.72
2023-01-10T21:08:09.828Z,98910.22
2023-01-10T21:13:31.826Z,98905.72
2023-01-10T21:18:53.546Z,98894.44
2023-01-10T21:24:15.755Z,98902.78
2023-01-10T21:29:37.551Z,98897.53
2023-01-10T21:34:59.301Z,98890.34
2023-01-10T21:40:21.028Z,98889.38
2023-01-10T21:45:42.792Z,98878.50
2023-01-10T21:51:04.619Z,98888.06
2023-01-10T21:56:26.330Z,98876.78
2023-01-10T22:01:48.082Z,98894.34
2023-01-10T22:07:09.836Z,98884.00
2023-01-10T22:12:31.768Z,98885.22
2023-01-10T22:17:53.517Z,98882.56
2023-01-10T22:23:15.299Z,98885.22
2023-01-10T22:28:37.053Z,98863.13
2023-01-10T22:33:58.725Z,98862.84
2023-01-10T22:39:20.527Z,98858.78
2023-01-10T22:44:42.233Z,98845.28
2023-01-10T22:50:04.210Z,98850.84
2023-01-10T22:55:25.996Z,98835.25
2023-01-10T23:00:48.662Z,98835.34
2023-01-10T23:06:11.323Z,98834.38
2023-01-10T23:11:33.030Z,98827.22
2023-01-10T23:16:55.202Z,98815.41
2023-01-10T23:22:16.893Z,98804.09
2023-01-10T23:27:38.837Z,98797.19
2023-01-10T23:33:00.515Z,98787.44
2023-01-10T23:38:22.334Z,98774.84
2023-01-10T23:43:44.109Z,98781.78
2023-01-10T23:49:05.880Z,98775.13
2023-01-10T23:54:27.576Z,98763.53
2023-01-10T23:59:49.283Z,98758.91
